Turnback Creek (Missouri), Greenfield (06918460)

StateMissouriCurrentPotential (133 cfs)
RiverTurnback CreekFlood - The river is flooding. Obstacles can be treacherous or deadly. The river should be avoided at this stage for casual trips and definitely for the inexperienced. Trips should be attempted only with protective gear and equipment.Flood(none)
Updated2019-10-14 2:30 (50 minutes ago)High - The river is high and potentially dangerous, especially for the young and / or inexperienced. Normal stream obstacles are sometimes difficult to navigate. Extended distances can be attempted, but canoe travel may not be advisable.High(none)
Discharge133 cfs (median: 56 cfs)Good - Conditions are ideal for a canoe or kayak. Boats typically will drag on fewer than one-quarter of riffles, if at all, and portages are unnecessary or rare. Normal float lengths can be attempted without a problem.Good(none)
Height5.4 feetLow - River is low but can still be floated. Some riffles are okay but most come with significant dragging and might need a portage. Float lengths should be reduced to accommodate low flow, dragging, and portages.Low(none)
TrendSteady (falling over 24 hours)Poor - River is too low to float comfortably. Most or all riffles will drag or must be portaged and some obstacles (such as slick shelf rock) cause undue problems. Avoid the river at this stage for casual paddling trips.Poor(none)
USGSExternal icon USGS Site for Greenfield (06918460)LocationExternal icon Google Maps

Trending Data

Plot Image
ObservationHeightDischargeMaximum
Discharge
Minimum
Discharge
Mean
Discharge
P05P10P20P25P50
(Median)
P75P80P90P95
2019-10-14 02:30 5.40 133 706 (2010) 10 (1981) 124 15 24 30 31 56 134 213 361 559
2019-10-14 01:30 5.40 133 706 (2010) 10 (1981) 124 15 24 30 31 56 134 213 361 559
2019-10-14 00:30 5.40 133 706 (2010) 10 (1981) 124 15 24 30 31 56 134 213 361 559
2019-10-13 23:30 5.41 134 1370 (1970) 10 (1981) 144 16 23 28 30 54 115 171 380 712
2019-10-13 22:30 5.41 134 1370 (1970) 10 (1981) 144 16 23 28 30 54 115 171 380 712
2019-10-13 21:30 5.42 136 1370 (1970) 10 (1981) 144 16 23 28 30 54 115 171 380 712
2019-10-13 20:30 5.42 136 1370 (1970) 10 (1981) 144 16 23 28 30 54 115 171 380 712
2019-10-13 19:30 5.43 138 1370 (1970) 10 (1981) 144 16 23 28 30 54 115 171 380 712
2019-10-13 18:30 5.43 138 1370 (1970) 10 (1981) 144 16 23 28 30 54 115 171 380 712
2019-10-13 17:30 5.44 140 1370 (1970) 10 (1981) 144 16 23 28 30 54 115 171 380 712
2019-10-13 16:30 5.44 140 1370 (1970) 10 (1981) 144 16 23 28 30 54 115 171 380 712
2019-10-13 15:30 5.45 141 1370 (1970) 10 (1981) 144 16 23 28 30 54 115 171 380 712
2019-10-13 14:30 5.46 143 1370 (1970) 10 (1981) 144 16 23 28 30 54 115 171 380 712
2019-10-13 13:30 5.46 143 1370 (1970) 10 (1981) 144 16 23 28 30 54 115 171 380 712
2019-10-13 12:30 5.47 145 1370 (1970) 10 (1981) 144 16 23 28 30 54 115 171 380 712
2019-10-13 11:30 5.47 145 1370 (1970) 10 (1981) 144 16 23 28 30 54 115 171 380 712
2019-10-13 10:30 5.48 147 1370 (1970) 10 (1981) 144 16 23 28 30 54 115 171 380 712
2019-10-13 09:30 5.48 147 1370 (1970) 10 (1981) 144 16 23 28 30 54 115 171 380 712
2019-10-13 08:30 5.48 147 1370 (1970) 10 (1981) 144 16 23 28 30 54 115 171 380 712
2019-10-13 07:30 5.49 149 1370 (1970) 10 (1981) 144 16 23 28 30 54 115 171 380 712
2019-10-13 06:30 5.49 149 1370 (1970) 10 (1981) 144 16 23 28 30 54 115 171 380 712
2019-10-13 05:30 5.50 151 1370 (1970) 10 (1981) 144 16 23 28 30 54 115 171 380 712
2019-10-13 04:30 5.50 151 1370 (1970) 10 (1981) 144 16 23 28 30 54 115 171 380 712
2019-10-13 03:30 5.51 152 1370 (1970) 10 (1981) 144 16 23 28 30 54 115 171 380 712
2019-10-13 02:30 5.52 154 1370 (1970) 10 (1981) 144 16 23 28 30 54 115 171 380 712
2019-10-13 01:30 5.52 154 1370 (1970) 10 (1981) 144 16 23 28 30 54 115 171 380 712
2019-10-13 00:30 5.53 156 1370 (1970) 10 (1981) 144 16 23 28 30 54 115 171 380 712
2019-10-12 23:30 5.54 158 2270 (1970) 9 (1981) 154 16 24 28 29 53 124 159 395 590
2019-10-12 22:30 5.55 160 2270 (1970) 9 (1981) 154 16 24 28 29 53 124 159 395 590
2019-10-12 21:30 5.55 160 2270 (1970) 9 (1981) 154 16 24 28 29 53 124 159 395 590
2019-10-12 20:30 5.56 162 2270 (1970) 9 (1981) 154 16 24 28 29 53 124 159 395 590
2019-10-12 19:30 5.56 162 2270 (1970) 9 (1981) 154 16 24 28 29 53 124 159 395 590
2019-10-12 18:30 5.57 164 2270 (1970) 9 (1981) 154 16 24 28 29 53 124 159 395 590
2019-10-12 17:30 5.58 166 2270 (1970) 9 (1981) 154 16 24 28 29 53 124 159 395 590
2019-10-12 16:30 5.60 170 2270 (1970) 9 (1981) 154 16 24 28 29 53 124 159 395 590
2019-10-12 15:30 5.61 172 2270 (1970) 9 (1981) 154 16 24 28 29 53 124 159 395 590
2019-10-12 14:30 5.62 174 2270 (1970) 9 (1981) 154 16 24 28 29 53 124 159 395 590
2019-10-12 13:30 5.64 178 2270 (1970) 9 (1981) 154 16 24 28 29 53 124 159 395 590
2019-10-12 12:30 5.64 178 2270 (1970) 9 (1981) 154 16 24 28 29 53 124 159 395 590
2019-10-12 11:30 5.66 182 2270 (1970) 9 (1981) 154 16 24 28 29 53 124 159 395 590
2019-10-12 10:30 5.68 187 2270 (1970) 9 (1981) 154 16 24 28 29 53 124 159 395 590
2019-10-12 09:30 5.70 191 2270 (1970) 9 (1981) 154 16 24 28 29 53 124 159 395 590
2019-10-12 08:30 5.71 193 2270 (1970) 9 (1981) 154 16 24 28 29 53 124 159 395 590
2019-10-12 07:30 5.74 200 2270 (1970) 9 (1981) 154 16 24 28 29 53 124 159 395 590
2019-10-12 06:30 5.76 204 2270 (1970) 9 (1981) 154 16 24 28 29 53 124 159 395 590
2019-10-12 05:30 5.78 209 2270 (1970) 9 (1981) 154 16 24 28 29 53 124 159 395 590
2019-10-12 04:30 5.81 216 2270 (1970) 9 (1981) 154 16 24 28 29 53 124 159 395 590
2019-10-12 03:30 5.84 223 2270 (1970) 9 (1981) 154 16 24 28 29 53 124 159 395 590
2019-10-12 02:30 5.89 235 2270 (1970) 9 (1981) 154 16 24 28 29 53 124 159 395 590
2019-10-12 01:30 5.93 245 2270 (1970) 9 (1981) 154 16 24 28 29 53 124 159 395 590
2019-10-12 00:30 5.99 261 2270 (1970) 9 (1981) 154 16 24 28 29 53 124 159 395 590
2019-10-11 23:30 6.07 282 1240 (2010) 10 (1981) 126 15 23 25 28 48 132 141 405 505
2019-10-11 22:30 6.17 311 1240 (2010) 10 (1981) 126 15 23 25 28 48 132 141 405 505
2019-10-11 21:30 6.26 337 1240 (2010) 10 (1981) 126 15 23 25 28 48 132 141 405 505
2019-10-11 20:30 6.40 377 1240 (2010) 10 (1981) 126 15 23 25 28 48 132 141 405 505
2019-10-11 19:30 6.56 422 1240 (2010) 10 (1981) 126 15 23 25 28 48 132 141 405 505
2019-10-11 18:30 6.73 474 1240 (2010) 10 (1981) 126 15 23 25 28 48 132 141 405 505
2019-10-11 17:30 6.86 515 1240 (2010) 10 (1981) 126 15 23 25 28 48 132 141 405 505
2019-10-11 16:30 6.82 502 1240 (2010) 10 (1981) 126 15 23 25 28 48 132 141 405 505
2019-10-11 15:30 6.22 326 1240 (2010) 10 (1981) 126 15 23 25 28 48 132 141 405 505
2019-10-11 14:30 5.26 110 1240 (2010) 10 (1981) 126 15 23 25 28 48 132 141 405 505
2019-10-11 13:30 5.20 101 1240 (2010) 10 (1981) 126 15 23 25 28 48 132 141 405 505
2019-10-11 12:30 5.16 95 1240 (2010) 10 (1981) 126 15 23 25 28 48 132 141 405 505
2019-10-11 11:30 5.13 91 1240 (2010) 10 (1981) 126 15 23 25 28 48 132 141 405 505
2019-10-11 10:30 5.09 86 1240 (2010) 10 (1981) 126 15 23 25 28 48 132 141 405 505
2019-10-11 09:30 5.05 81 1240 (2010) 10 (1981) 126 15 23 25 28 48 132 141 405 505
2019-10-11 08:30 5.03 78 1240 (2010) 10 (1981) 126 15 23 25 28 48 132 141 405 505
2019-10-11 07:30 5.03 78 1240 (2010) 10 (1981) 126 15 23 25 28 48 132 141 405 505
2019-10-11 06:30 5.00 75 1240 (2010) 10 (1981) 126 15 23 25 28 48 132 141 405 505
2019-10-11 05:30 4.99 74 1240 (2010) 10 (1981) 126 15 23 25 28 48 132 141 405 505
2019-10-11 04:30 4.92 66 1240 (2010) 10 (1981) 126 15 23 25 28 48 132 141 405 505
2019-10-11 03:30 4.93 67 1240 (2010) 10 (1981) 126 15 23 25 28 48 132 141 405 505
2019-10-11 02:30 4.93 67 1240 (2010) 10 (1981) 126 15 23 25 28 48 132 141 405 505
2019-10-11 01:30 4.93 67 1240 (2010) 10 (1981) 126 15 23 25 28 48 132 141 405 505
2019-10-11 00:30 4.94 68 1240 (2010) 10 (1981) 126 15 23 25 28 48 132 141 405 505
2019-10-10 23:30 4.94 68 2750 (2010) 10 (1981) 198 13 21 23 26 49 141 157 438 1110
2019-10-10 22:30 4.94 68 2750 (2010) 10 (1981) 198 13 21 23 26 49 141 157 438 1110
2019-10-10 21:30 4.92 66 2750 (2010) 10 (1981) 198 13 21 23 26 49 141 157 438 1110
2019-10-10 20:30 4.93 67 2750 (2010) 10 (1981) 198 13 21 23 26 49 141 157 438 1110
2019-10-10 19:30 4.92 66 2750 (2010) 10 (1981) 198 13 21 23 26 49 141 157 438 1110
2019-10-10 18:30 4.92 66 2750 (2010) 10 (1981) 198 13 21 23 26 49 141 157 438 1110
2019-10-10 17:30 4.93 67 2750 (2010) 10 (1981) 198 13 21 23 26 49 141 157 438 1110
2019-10-10 16:30 4.93 67 2750 (2010) 10 (1981) 198 13 21 23 26 49 141 157 438 1110
2019-10-10 15:30 4.93 67 2750 (2010) 10 (1981) 198 13 21 23 26 49 141 157 438 1110
2019-10-10 14:30 4.92 66 2750 (2010) 10 (1981) 198 13 21 23 26 49 141 157 438 1110
2019-10-10 13:30 4.89 62 2750 (2010) 10 (1981) 198 13 21 23 26 49 141 157 438 1110
2019-10-10 12:30 4.87 60 2750 (2010) 10 (1981) 198 13 21 23 26 49 141 157 438 1110
2019-10-10 11:30 4.81 54 2750 (2010) 10 (1981) 198 13 21 23 26 49 141 157 438 1110
2019-10-10 10:30 4.83 56 2750 (2010) 10 (1981) 198 13 21 23 26 49 141 157 438 1110
2019-10-10 09:30 4.83 56 2750 (2010) 10 (1981) 198 13 21 23 26 49 141 157 438 1110
2019-10-10 08:30 4.82 55 2750 (2010) 10 (1981) 198 13 21 23 26 49 141 157 438 1110
2019-10-10 07:30 4.83 56 2750 (2010) 10 (1981) 198 13 21 23 26 49 141 157 438 1110
2019-10-10 06:30 4.83 56 2750 (2010) 10 (1981) 198 13 21 23 26 49 141 157 438 1110
2019-10-10 05:30 4.83 56 2750 (2010) 10 (1981) 198 13 21 23 26 49 141 157 438 1110
2019-10-10 04:30 4.83 56 2750 (2010) 10 (1981) 198 13 21 23 26 49 141 157 438 1110
2019-10-10 03:30 4.83 56 2750 (2010) 10 (1981) 198 13 21 23 26 49 141 157 438 1110
2019-10-10 02:30 4.84 57 2750 (2010) 10 (1981) 198 13 21 23 26 49 141 157 438 1110
2019-10-10 01:30 4.84 57 2750 (2010) 10 (1981) 198 13 21 23 26 49 141 157 438 1110
2019-10-10 00:30 4.84 57 2750 (2010) 10 (1981) 198 13 21 23 26 49 141 157 438 1110
2019-10-09 23:30 4.85 58 9540 (2010) 11 (1981) 296 13 22 23 26 41 122 157 479 761
2019-10-09 22:30 4.85 58 9540 (2010) 11 (1981) 296 13 22 23 26 41 122 157 479 761
2019-10-09 21:30 4.85 58 9540 (2010) 11 (1981) 296 13 22 23 26 41 122 157 479 761
2019-10-09 20:30 4.85 58 9540 (2010) 11 (1981) 296 13 22 23 26 41 122 157 479 761
2019-10-09 19:30 4.85 58 9540 (2010) 11 (1981) 296 13 22 23 26 41 122 157 479 761
2019-10-09 18:30 4.85 58 9540 (2010) 11 (1981) 296 13 22 23 26 41 122 157 479 761
2019-10-09 17:30 4.84 57 9540 (2010) 11 (1981) 296 13 22 23 26 41 122 157 479 761
2019-10-09 16:30 4.84 57 9540 (2010) 11 (1981) 296 13 22 23 26 41 122 157 479 761
2019-10-09 15:30 4.83 56 9540 (2010) 11 (1981) 296 13 22 23 26 41 122 157 479 761
2019-10-09 14:30 4.83 56 9540 (2010) 11 (1981) 296 13 22 23 26 41 122 157 479 761
2019-10-09 13:30 4.83 56 9540 (2010) 11 (1981) 296 13 22 23 26 41 122 157 479 761
2019-10-09 12:30 4.82 55 9540 (2010) 11 (1981) 296 13 22 23 26 41 122 157 479 761
2019-10-09 11:30 4.82 55 9540 (2010) 11 (1981) 296 13 22 23 26 41 122 157 479 761
2019-10-09 10:30 4.82 55 9540 (2010) 11 (1981) 296 13 22 23 26 41 122 157 479 761
2019-10-09 09:30 4.82 55 9540 (2010) 11 (1981) 296 13 22 23 26 41 122 157 479 761
2019-10-09 08:30 4.82 55 9540 (2010) 11 (1981) 296 13 22 23 26 41 122 157 479 761
2019-10-09 07:30 4.82 55 9540 (2010) 11 (1981) 296 13 22 23 26 41 122 157 479 761
2019-10-09 06:30 4.82 55 9540 (2010) 11 (1981) 296 13 22 23 26 41 122 157 479 761
2019-10-09 05:30 4.82 55 9540 (2010) 11 (1981) 296 13 22 23 26 41 122 157 479 761
2019-10-09 04:30 4.83 56 9540 (2010) 11 (1981) 296 13 22 23 26 41 122 157 479 761
2019-10-09 03:30 4.83 56 9540 (2010) 11 (1981) 296 13 22 23 26 41 122 157 479 761
2019-10-09 02:30 4.83 56 9540 (2010) 11 (1981) 296 13 22 23 26 41 122 157 479 761
2019-10-09 01:30 4.83 56 9540 (2010) 11 (1981) 296 13 22 23 26 41 122 157 479 761
2019-10-09 00:30 4.84 57 9540 (2010) 11 (1981) 296 13 22 23 26 41 122 157 479 761
2019-10-08 23:30 4.84 57 868 (1999) 11 (1981) 112 13 21 24 27 44 115 164 321 527
2019-10-08 22:30 4.84 57 868 (1999) 11 (1981) 112 13 21 24 27 44 115 164 321 527
2019-10-08 21:30 4.85 58 868 (1999) 11 (1981) 112 13 21 24 27 44 115 164 321 527
2019-10-08 20:30 4.85 58 868 (1999) 11 (1981) 112 13 21 24 27 44 115 164 321 527
2019-10-08 19:30 4.85 58 868 (1999) 11 (1981) 112 13 21 24 27 44 115 164 321 527
2019-10-08 18:30 4.85 58 868 (1999) 11 (1981) 112 13 21 24 27 44 115 164 321 527
2019-10-08 17:30 4.84 57 868 (1999) 11 (1981) 112 13 21 24 27 44 115 164 321 527
2019-10-08 16:30 4.84 57 868 (1999) 11 (1981) 112 13 21 24 27 44 115 164 321 527
2019-10-08 15:30 4.84 57 868 (1999) 11 (1981) 112 13 21 24 27 44 115 164 321 527
2019-10-08 14:30 4.84 57 868 (1999) 11 (1981) 112 13 21 24 27 44 115 164 321 527
2019-10-08 13:30 4.85 58 868 (1999) 11 (1981) 112 13 21 24 27 44 115 164 321 527
2019-10-08 12:30 4.85 58 868 (1999) 11 (1981) 112 13 21 24 27 44 115 164 321 527
2019-10-08 11:30 4.85 58 868 (1999) 11 (1981) 112 13 21 24 27 44 115 164 321 527
2019-10-08 10:30 4.84 57 868 (1999) 11 (1981) 112 13 21 24 27 44 115 164 321 527
2019-10-08 09:30 4.84 57 868 (1999) 11 (1981) 112 13 21 24 27 44 115 164 321 527
2019-10-08 08:30 4.84 57 868 (1999) 11 (1981) 112 13 21 24 27 44 115 164 321 527
2019-10-08 07:30 4.84 57 868 (1999) 11 (1981) 112 13 21 24 27 44 115 164 321 527
2019-10-08 06:30 4.84 57 868 (1999) 11 (1981) 112 13 21 24 27 44 115 164 321 527
2019-10-08 05:30 4.84 57 868 (1999) 11 (1981) 112 13 21 24 27 44 115 164 321 527
2019-10-08 04:30 4.84 57 868 (1999) 11 (1981) 112 13 21 24 27 44 115 164 321 527
2019-10-08 03:30 4.84 57 868 (1999) 11 (1981) 112 13 21 24 27 44 115 164 321 527
2019-10-08 02:30 4.84 57 868 (1999) 11 (1981) 112 13 21 24 27 44 115 164 321 527
2019-10-08 01:30 4.84 57 868 (1999) 11 (1981) 112 13 21 24 27 44 115 164 321 527
2019-10-08 00:30 4.84 57 868 (1999) 11 (1981) 112 13 21 24 27 44 115 164 321 527
2019-10-07 23:30 4.85 58 1270 (1999) 11 (1981) 114 13 19 23 27 43 99 137 281 552
2019-10-07 22:30 4.84 57 1270 (1999) 11 (1981) 114 13 19 23 27 43 99 137 281 552
2019-10-07 21:30 4.85 58 1270 (1999) 11 (1981) 114 13 19 23 27 43 99 137 281 552
2019-10-07 20:30 4.85 58 1270 (1999) 11 (1981) 114 13 19 23 27 43 99 137 281 552
2019-10-07 19:30 4.85 58 1270 (1999) 11 (1981) 114 13 19 23 27 43 99 137 281 552
2019-10-07 18:30 4.85 58 1270 (1999) 11 (1981) 114 13 19 23 27 43 99 137 281 552
2019-10-07 17:30 4.85 58 1270 (1999) 11 (1981) 114 13 19 23 27 43 99 137 281 552
2019-10-07 16:30 4.85 58 1270 (1999) 11 (1981) 114 13 19 23 27 43 99 137 281 552
2019-10-07 15:30 4.85 58 1270 (1999) 11 (1981) 114 13 19 23 27 43 99 137 281 552
2019-10-07 14:30 4.86 59 1270 (1999) 11 (1981) 114 13 19 23 27 43 99 137 281 552
2019-10-07 13:30 4.86 59 1270 (1999) 11 (1981) 114 13 19 23 27 43 99 137 281 552
2019-10-07 12:30 4.86 59 1270 (1999) 11 (1981) 114 13 19 23 27 43 99 137 281 552
2019-10-07 11:30 4.86 59 1270 (1999) 11 (1981) 114 13 19 23 27 43 99 137 281 552
2019-10-07 10:30 4.85 58 1270 (1999) 11 (1981) 114 13 19 23 27 43 99 137 281 552
2019-10-07 09:30 4.85 58 1270 (1999) 11 (1981) 114 13 19 23 27 43 99 137 281 552
2019-10-07 08:30 4.85 58 1270 (1999) 11 (1981) 114 13 19 23 27 43 99 137 281 552
2019-10-07 07:30 4.85 58 1270 (1999) 11 (1981) 114 13 19 23 27 43 99 137 281 552
2019-10-07 06:30 4.85 58 1270 (1999) 11 (1981) 114 13 19 23 27 43 99 137 281 552
2019-10-07 05:30 4.85 58 1270 (1999) 11 (1981) 114 13 19 23 27 43 99 137 281 552
2019-10-07 04:30 4.85 58 1270 (1999) 11 (1981) 114 13 19 23 27 43 99 137 281 552
2019-10-07 03:30 4.84 57 1270 (1999) 11 (1981) 114 13 19 23 27 43 99 137 281 552
2019-10-07 02:30 4.84 57 1270 (1999) 11 (1981) 114 13 19 23 27 43 99 137 281 552
2019-10-07 01:30 4.84 57 1270 (1999) 11 (1981) 114 13 19 23 27 43 99 137 281 552
2019-10-07 00:30 4.84 57 1270 (1999) 11 (1981) 114 13 19 23 27 43 99 137 281 552

A total of 171 rows are displayed for years 1966 through 2018.

Trips for Turnback Creek (Missouri), Greenfield (06918460)

DateStartEndDistanceConditionDischargeHeightFishingDetails
Click for details2019-07-02 Dilday Mill Access Dilday Mill Access Total trip distance: 4.5 miles4.5 Good 0 13.66 Poor NoneNone Van Someren, TomVan Someren, Tom On a whim, I decided to explore a section of Turnback Creek to determine it's suitability and attractiveness for future floating and fishing. I paddled 2.25 miles upstream from Dilday Mill Access. Unfortunately, the stream was rather murky. I thought that might just be because the water usually is cloudier nearer a dammed up area. But even 2 miles upstream from the Dilday Mill dam there never was more than 1.5 foot visibility into the water. While the stream was relatively clear of obstructions it's banks had tons of old river detritus that has accumulated over the years. Very little wildlife was observed. Only one turtle was spotted and I only saw one fish make an appearance below the water. Speaking with some of the locals, they also confirmed the creek wasn't really noted for good fishing. Based on this section alone though, it could be a fun river to do for technical navigation purposes. Because the stream seemed to twist and turn around each bend. And the section above Fiddler's Ford Access appears to have this characteristic on Google maps.On a whim, I decided to explore a section of Turnback Creek to determine it's suitability and attractiveness for future floating and fishing. I paddled 2.25 miles upstream from Dilday Mill Access. Unfortunately, the stream was rather murky. I thought that might just be because the water usually is cloudier nearer a dammed up area. But even 2 miles upstream from the Dilday Mill dam there never was more than 1.5 foot visibility into the water. While the stream was relatively clear of obstructions it's banks had tons of old river detritus that has accumulated over the years. Very little wildlife was observed. Only one turtle was spotted and I only saw one fish make an appearance below the water. Speaking with some of the locals, they also confirmed the creek wasn't really noted for good fishing. Based on this section alone though, it could be a fun river to do for technical navigation purposes. Because the stream seemed to twist and turn around each bend. And the section above Fiddler's Ford Access appears to have this characteristic on Google maps. USGS Gauge Data:
Greenfield (06918460)
Discharge: 0
Height: 13.66
<b>USGS Gauge Data:</b></br />Greenfield (06918460)<br />Discharge: 0<br />Height: 13.66
Source: Van SomerenSource: Van Someren

A total of 1 rows are displayed.

Trip Summary for Turnback Creek (Missouri), Greenfield (06918460)

Miles4.5
Trips1
People1
Dates1
Years1
Months1
Rows1
Sources1

Condition Descriptions

Fishing Conditions

Fish Species

Notes

Classic Trip List

The classic River Trips application is still available for use. It is updated with the new system using a data retrofit. It is no longer maintained. The original River Trips application is no longer updated (as of 1 Dec 2016) but can be checked for errors or for the condition of the data before it was converted to the new system.